createdAt,value
2018-12-09T00:00:22.168Z,7.00
2018-12-09T00:02:49.740Z,7.00
2018-12-09T00:05:17.326Z,7.10
2018-12-09T00:07:44.889Z,7.00
2018-12-09T00:10:12.569Z,7.10
2018-12-09T00:12:40.141Z,7.10
2018-12-09T00:15:07.795Z,7.20
2018-12-09T00:17:35.333Z,7.30
2018-12-09T00:20:03.071Z,7.20
2018-12-09T00:22:30.681Z,7.30
2018-12-09T00:24:58.222Z,7.30
2018-12-09T00:27:25.890Z,7.30
2018-12-09T00:29:53.571Z,7.40
2018-12-09T00:32:21.132Z,7.30
2018-12-09T00:34:48.849Z,7.30
2018-12-09T00:37:16.378Z,7.30
2018-12-09T00:39:43.921Z,7.20
2018-12-09T00:42:11.444Z,7.20
2018-12-09T00:44:39.093Z,7.30
2018-12-09T00:47:06.666Z,7.30
2018-12-09T00:49:34.282Z,7.30
2018-12-09T00:52:01.862Z,7.20
2018-12-09T00:54:29.447Z,7.30
2018-12-09T00:56:57.058Z,7.30
2018-12-09T00:59:24.632Z,7.30
2018-12-09T01:01:52.199Z,7.30
2018-12-09T01:04:19.779Z,7.40
2018-12-09T01:06:47.301Z,7.50
2018-12-09T01:09:14.891Z,7.50
2018-12-09T01:11:42.461Z,7.50
2018-12-09T01:14:10.053Z,7.60
2018-12-09T01:16:37.638Z,7.70
2018-12-09T01:19:05.318Z,7.60
2018-12-09T01:21:32.886Z,7.70
2018-12-09T01:24:00.410Z,7.60
2018-12-09T01:26:28.321Z,7.60
2018-12-09T01:28:55.851Z,7.50
2018-12-09T01:31:23.456Z,7.60
2018-12-09T01:33:50.982Z,7.60
2018-12-09T01:36:18.622Z,7.60
2018-12-09T01:38:46.145Z,7.50
2018-12-09T01:41:13.779Z,7.50
2018-12-09T01:43:41.341Z,7.50
2018-12-09T01:46:08.930Z,7.40
2018-12-09T01:48:36.485Z,7.40
2018-12-09T01:51:04.045Z,7.40
2018-12-09T01:53:43.606Z,7.40
2018-12-09T01:56:11.192Z,7.50
2018-12-09T01:58:38.757Z,7.50
2018-12-09T02:01:06.334Z,7.50
2018-12-09T02:03:33.879Z,7.40
2018-12-09T02:06:01.482Z,7.40
2018-12-09T02:08:29.152Z,7.40
2018-12-09T02:10:57.135Z,7.40
2018-12-09T02:13:24.705Z,7.40
2018-12-09T02:15:52.411Z,7.40
2018-12-09T02:18:19.949Z,7.40
2018-12-09T02:20:47.526Z,7.40
2018-12-09T02:23:15.486Z,7.30
2018-12-09T02:25:43.037Z,7.40
2018-12-09T02:28:10.566Z,7.30
2018-12-09T02:30:38.109Z,7.30
2018-12-09T02:33:05.898Z,7.30
2018-12-09T02:35:37.327Z,7.30
2018-12-09T02:38:04.900Z,7.30
2018-12-09T02:40:32.458Z,7.30
2018-12-09T02:42:59.989Z,7.20
2018-12-09T02:45:27.762Z,7.10
2018-12-09T02:47:55.290Z,7.10
2018-12-09T02:50:22.841Z,7.10
2018-12-09T02:52:50.373Z,7.10
2018-12-09T02:55:17.937Z,7.10
2018-12-09T02:57:45.599Z,7.10
2018-12-09T03:00:14.502Z,7.00
2018-12-09T03:02:42.089Z,7.10
2018-12-09T03:05:09.678Z,7.10
2018-12-09T03:07:37.254Z,7.20
2018-12-09T03:10:05.706Z,7.10
2018-12-09T03:12:33.241Z,7.10
2018-12-09T03:15:00.830Z,7.10
2018-12-09T03:17:28.353Z,7.20
2018-12-09T03:19:55.905Z,7.30
2018-12-09T03:22:23.435Z,7.40
2018-12-09T03:24:51.062Z,7.40
2018-12-09T03:27:18.613Z,7.50
2018-12-09T03:29:46.211Z,7.50
2018-12-09T03:32:13.786Z,7.50
2018-12-09T03:34:41.492Z,7.50
2018-12-09T03:37:09.129Z,7.50
2018-12-09T03:39:36.666Z,7.50
2018-12-09T03:42:04.300Z,7.50
2018-12-09T03:44:31.840Z,7.40
2018-12-09T03:46:59.398Z,7.50
2018-12-09T03:49:26.935Z,7.50
2018-12-09T03:51:54.487Z,7.50
2018-12-09T03:54:22.025Z,7.50
2018-12-09T03:56:49.620Z,7.50
2018-12-09T03:59:17.163Z,7.40
2018-12-09T04:01:44.718Z,7.30
2018-12-09T04:04:12.427Z,7.20
2018-12-09T04:06:40.018Z,7.10
2018-12-09T04:09:07.603Z,6.90
2018-12-09T04:11:35.243Z,6.80
2018-12-09T04:14:02.815Z,6.70
2018-12-09T04:16:30.365Z,6.60
2018-12-09T04:18:57.911Z,6.50
2018-12-09T04:21:25.482Z,6.50
2018-12-09T04:23:53.006Z,6.50
2018-12-09T04:26:20.563Z,6.50
2018-12-09T04:28:48.089Z,6.40
2018-12-09T04:31:15.644Z,6.40
2018-12-09T04:33:43.179Z,6.40
2018-12-09T04:36:10.730Z,6.50
2018-12-09T04:38:38.259Z,6.50
2018-12-09T04:41:05.818Z,6.50
2018-12-09T04:43:33.390Z,6.40
2018-12-09T04:46:01.940Z,6.40
2018-12-09T04:48:29.471Z,6.40
2018-12-09T04:50:57.026Z,6.40
2018-12-09T04:53:24.554Z,6.30
2018-12-09T04:55:52.119Z,6.30
2018-12-09T04:58:19.703Z,6.30
2018-12-09T05:00:54.813Z,6.30
2018-12-09T05:03:22.832Z,6.30
2018-12-09T05:05:50.592Z,6.30
2018-12-09T05:08:18.243Z,6.30
2018-12-09T05:10:45.784Z,6.20
2018-12-09T05:13:13.353Z,6.20
2018-12-09T05:15:40.878Z,6.30
2018-12-09T05:18:08.435Z,6.30
2018-12-09T05:20:36.145Z,6.20
2018-12-09T05:23:03.759Z,6.30
2018-12-09T05:25:31.326Z,6.20
2018-12-09T05:27:58.893Z,6.20
2018-12-09T05:30:26.571Z,6.20
2018-12-09T05:32:54.130Z,6.20
2018-12-09T05:35:22.112Z,6.20
2018-12-09T05:37:49.693Z,6.20
2018-12-09T05:40:17.222Z,6.20
2018-12-09T05:42:44.773Z,6.20
2018-12-09T05:45:12.437Z,6.20
2018-12-09T05:47:40.330Z,6.20
2018-12-09T05:50:07.941Z,6.10
2018-12-09T05:52:35.496Z,6.20
2018-12-09T05:55:03.469Z,6.10
2018-12-09T05:57:31.034Z,6.10
2018-12-09T05:59:58.991Z,6.00
2018-12-09T06:02:38.606Z,6.00
2018-12-09T06:05:06.311Z,6.00
2018-12-09T06:07:33.877Z,6.00
2018-12-09T06:10:01.415Z,6.00
2018-12-09T06:12:29.022Z,6.00
2018-12-09T06:14:56.693Z,6.00
2018-12-09T06:17:24.250Z,6.00
2018-12-09T06:19:51.971Z,6.00
2018-12-09T06:22:19.582Z,6.10
2018-12-09T06:24:47.637Z,6.10
2018-12-09T06:27:15.179Z,6.10
2018-12-09T06:29:42.712Z,6.20
2018-12-09T06:32:10.266Z,6.10
2018-12-09T06:34:37.793Z,6.20
2018-12-09T06:37:05.428Z,6.20
2018-12-09T06:39:33.007Z,6.20
2018-12-09T06:42:00.697Z,6.20
2018-12-09T06:44:28.405Z,6.30
2018-12-09T06:46:55.954Z,6.30
2018-12-09T06:49:23.488Z,6.30
2018-12-09T06:51:51.035Z,6.30
2018-12-09T06:54:18.577Z,6.30
2018-12-09T06:56:46.143Z,6.30
2018-12-09T06:59:13.801Z,6.30
2018-12-09T07:01:41.765Z,6.40
2018-12-09T07:04:09.302Z,6.30
2018-12-09T07:06:36.835Z,6.30
2018-12-09T07:09:05.202Z,6.30
2018-12-09T07:11:32.738Z,6.20
2018-12-09T07:14:00.297Z,6.30
2018-12-09T07:16:28.182Z,6.30
2018-12-09T07:18:55.754Z,6.30
2018-12-09T07:21:23.406Z,6.30
2018-12-09T07:23:50.982Z,6.30
2018-12-09T07:26:18.541Z,6.30
2018-12-09T07:28:46.122Z,6.30
2018-12-09T07:31:13.761Z,6.40
2018-12-09T07:33:41.371Z,6.50
2018-12-09T07:36:08.942Z,6.50
2018-12-09T07:38:36.503Z,6.60
2018-12-09T07:41:04.494Z,6.60
2018-12-09T07:43:32.065Z,6.60
2018-12-09T07:45:59.738Z,6.60
2018-12-09T07:48:27.311Z,6.50
2018-12-09T07:50:54.890Z,6.60
2018-12-09T07:53:22.939Z,6.60
2018-12-09T07:55:50.474Z,6.70
2018-12-09T07:58:18.102Z,6.70
2018-12-09T08:00:45.631Z,6.70
2018-12-09T08:03:13.243Z,6.70
2018-12-09T08:05:40.839Z,6.70
2018-12-09T08:08:08.407Z,6.80
2018-12-09T08:10:35.977Z,6.80
2018-12-09T08:13:03.546Z,6.80
2018-12-09T08:15:31.070Z,6.70
2018-12-09T08:17:58.613Z,6.70
2018-12-09T08:20:26.143Z,6.80
2018-12-09T08:22:53.696Z,6.80
2018-12-09T08:25:21.230Z,6.80
2018-12-09T08:27:48.853Z,6.80
2018-12-09T08:30:16.465Z,6.80
2018-12-09T08:32:44.012Z,6.90
2018-12-09T08:35:11.597Z,6.80
2018-12-09T08:37:39.150Z,6.90
2018-12-09T08:40:06.850Z,6.90
2018-12-09T08:42:34.418Z,6.90
2018-12-09T08:45:01.991Z,6.90
2018-12-09T08:47:29.567Z,6.90
2018-12-09T08:49:57.133Z,6.80
2018-12-09T08:52:24.710Z,6.80
2018-12-09T08:54:52.294Z,6.90
2018-12-09T08:57:19.850Z,6.90
2018-12-09T08:59:47.398Z,6.90
2018-12-09T09:02:14.935Z,6.90
2018-12-09T09:04:42.571Z,6.90
2018-12-09T09:07:10.094Z,6.80
2018-12-09T09:09:37.718Z,6.90
2018-12-09T09:12:05.286Z,7.00
2018-12-09T09:14:32.830Z,7.00
2018-12-09T09:17:00.429Z,6.90
2018-12-09T09:19:28.588Z,7.00
2018-12-09T09:21:56.366Z,7.00
2018-12-09T09:24:24.113Z,7.00
2018-12-09T09:26:51.740Z,7.00
2018-12-09T09:29:19.288Z,7.00
2018-12-09T09:31:46.885Z,7.00
2018-12-09T09:34:14.458Z,7.00
2018-12-09T09:36:41.990Z,7.10
2018-12-09T09:39:09.580Z,7.00
2018-12-09T09:41:37.173Z,7.00
2018-12-09T09:44:04.753Z,7.00
2018-12-09T09:46:32.330Z,7.00
2018-12-09T09:48:59.898Z,7.00
2018-12-09T09:51:27.476Z,7.00
2018-12-09T09:53:55.021Z,7.10
2018-12-09T09:56:22.734Z,7.10
2018-12-09T09:58:50.283Z,7.10
2018-12-09T10:01:17.869Z,7.10
2018-12-09T10:03:45.417Z,7.20
2018-12-09T10:06:13.025Z,7.20
2018-12-09T10:08:40.614Z,7.30
2018-12-09T10:11:08.142Z,7.30
2018-12-09T10:13:35.687Z,7.30
2018-12-09T10:16:03.218Z,7.30
2018-12-09T10:18:30.769Z,7.30
2018-12-09T10:20:58.295Z,7.30
2018-12-09T10:23:25.872Z,7.30
2018-12-09T10:25:53.628Z,7.20
2018-12-09T10:28:22.303Z,7.20
2018-12-09T10:30:49.926Z,7.20
2018-12-09T10:33:17.535Z,7.10
2018-12-09T10:35:45.101Z,7.20
2018-12-09T10:38:12.670Z,7.20
2018-12-09T10:40:40.255Z,7.30
2018-12-09T10:43:07.827Z,7.20
2018-12-09T10:45:35.414Z,7.30
2018-12-09T10:48:02.938Z,7.20
2018-12-09T10:50:30.522Z,7.20
2018-12-09T10:52:58.109Z,7.10
2018-12-09T10:55:25.681Z,7.10
2018-12-09T10:57:53.218Z,7.10
2018-12-09T11:03:19.066Z,7.10
2018-12-09T11:05:46.613Z,7.10
2018-12-09T11:08:14.224Z,7.00
2018-12-09T11:10:41.912Z,6.90
2018-12-09T11:13:09.442Z,6.90
2018-12-09T11:15:36.996Z,6.80
2018-12-09T11:18:04.562Z,6.80
2018-12-09T11:20:32.112Z,6.70
2018-12-09T11:22:59.637Z,6.70
2018-12-09T11:25:27.188Z,6.60
2018-12-09T11:27:54.734Z,6.60
2018-12-09T11:30:22.430Z,6.60
2018-12-09T11:32:50.081Z,6.50
2018-12-09T11:35:17.631Z,6.60
2018-12-09T11:37:45.162Z,6.60
2018-12-09T11:40:12.709Z,6.60
2018-12-09T11:42:40.234Z,6.60
2018-12-09T11:45:08.026Z,6.60
2018-12-09T11:47:35.592Z,6.70
2018-12-09T11:50:04.021Z,6.70
2018-12-09T11:52:31.597Z,6.80
2018-12-09T11:54:59.138Z,6.80
2018-12-09T11:57:26.756Z,6.80
2018-12-09T11:59:54.318Z,6.80
2018-12-09T12:02:21.887Z,6.80
2018-12-09T12:04:49.453Z,6.80
2018-12-09T12:07:16.986Z,6.80
2018-12-09T12:09:44.606Z,6.90
2018-12-09T12:12:12.171Z,6.90
2018-12-09T12:14:39.721Z,7.00
2018-12-09T12:17:07.242Z,7.00
2018-12-09T12:19:34.890Z,7.00
2018-12-09T12:22:02.467Z,7.00
2018-12-09T12:24:30.038Z,6.90
2018-12-09T12:26:57.719Z,7.00
2018-12-09T12:29:25.274Z,7.00
2018-12-09T12:31:52.867Z,7.00
2018-12-09T12:34:20.459Z,7.00
2018-12-09T12:36:48.108Z,7.00
2018-12-09T12:39:15.675Z,7.00
2018-12-09T12:41:43.248Z,6.90
2018-12-09T12:44:10.853Z,6.90
2018-12-09T12:46:38.498Z,6.90
2018-12-09T12:49:06.178Z,6.90
2018-12-09T12:51:33.853Z,6.80
2018-12-09T12:54:01.379Z,6.80
2018-12-09T12:56:28.966Z,6.80
2018-12-09T12:58:56.562Z,6.80
2018-12-09T13:01:24.142Z,6.70
2018-12-09T13:03:51.724Z,6.80
2018-12-09T13:06:19.776Z,6.80
2018-12-09T13:08:47.313Z,6.80
2018-12-09T13:11:14.869Z,6.90
2018-12-09T13:13:42.398Z,6.90
2018-12-09T13:16:09.981Z,6.90
2018-12-09T13:18:37.508Z,6.90
2018-12-09T13:21:05.125Z,6.90
2018-12-09T13:23:32.650Z,6.90
2018-12-09T13:26:00.275Z,6.80
2018-12-09T13:28:27.801Z,6.80
2018-12-09T13:30:55.854Z,6.60
2018-12-09T13:33:23.447Z,6.50
2018-12-09T13:35:51.046Z,6.10
2018-12-09T13:38:18.642Z,5.40
2018-12-09T13:40:46.214Z,5.20
2018-12-09T13:43:13.783Z,5.10
2018-12-09T13:45:41.418Z,5.10
2018-12-09T13:48:09.127Z,5.10
2018-12-09T13:50:36.722Z,5.10
2018-12-09T13:53:04.286Z,5.10
2018-12-09T13:55:31.858Z,5.10
2018-12-09T13:57:59.492Z,5.10
2018-12-09T14:00:27.048Z,5.20
2018-12-09T14:02:54.686Z,5.20
2018-12-09T14:05:22.239Z,5.20
2018-12-09T14:07:50.306Z,5.20
2018-12-09T14:10:17.890Z,5.20
2018-12-09T14:12:45.421Z,5.30
2018-12-09T14:15:12.972Z,5.30
2018-12-09T14:17:40.522Z,5.20
2018-12-09T14:20:08.372Z,5.30
2018-12-09T14:22:35.910Z,5.30
2018-12-09T14:25:03.970Z,5.30
2018-12-09T14:27:31.537Z,5.30
2018-12-09T14:29:59.100Z,5.30
2018-12-09T14:32:26.732Z,5.30
2018-12-09T14:34:54.266Z,5.30
2018-12-09T14:37:21.946Z,5.30
2018-12-09T14:39:49.558Z,5.30
2018-12-09T14:42:17.161Z,5.30
2018-12-09T14:44:44.701Z,5.30
2018-12-09T14:47:12.627Z,5.30
2018-12-09T14:49:40.397Z,5.30
2018-12-09T14:52:08.140Z,5.30
2018-12-09T14:54:35.742Z,5.30
2018-12-09T14:57:03.349Z,5.20
2018-12-09T14:59:30.885Z,5.10
2018-12-09T15:01:58.466Z,5.10
2018-12-09T15:04:26.035Z,5.10
2018-12-09T15:06:53.609Z,5.10
2018-12-09T15:09:21.221Z,5.00
2018-12-09T15:11:48.807Z,5.00
2018-12-09T15:14:17.270Z,5.00
2018-12-09T15:16:45.106Z,5.00
2018-12-09T15:19:12.675Z,4.90
2018-12-09T15:21:40.265Z,4.90
2018-12-09T15:24:07.842Z,4.90
2018-12-09T15:26:35.535Z,4.90
2018-12-09T15:29:03.091Z,4.90
2018-12-09T15:31:30.659Z,4.90
2018-12-09T15:33:58.225Z,4.80
2018-12-09T15:36:25.818Z,4.80
2018-12-09T15:38:53.377Z,4.80
2018-12-09T15:41:20.969Z,4.80
2018-12-09T15:43:48.514Z,4.80
2018-12-09T15:46:16.063Z,4.80
2018-12-09T15:48:43.666Z,4.80
2018-12-09T15:51:11.385Z,4.80
2018-12-09T15:53:38.911Z,4.80
2018-12-09T15:56:06.533Z,4.80
2018-12-09T15:58:34.332Z,4.70
2018-12-09T16:01:01.901Z,4.70
2018-12-09T16:03:29.822Z,4.60
2018-12-09T16:05:57.494Z,4.60
2018-12-09T16:08:25.065Z,4.60
2018-12-09T16:10:52.638Z,4.60
2018-12-09T16:13:20.205Z,4.50
2018-12-09T16:15:47.739Z,4.50
2018-12-09T16:18:15.322Z,4.50
2018-12-09T16:20:42.858Z,4.50
2018-12-09T16:23:10.498Z,4.50
2018-12-09T16:25:38.078Z,4.50
2018-12-09T16:28:05.642Z,4.50
2018-12-09T16:30:33.231Z,4.50
2018-12-09T16:33:00.778Z,4.50
2018-12-09T16:35:28.442Z,4.50
2018-12-09T16:37:56.030Z,4.50
2018-12-09T16:40:23.624Z,4.60
2018-12-09T16:42:51.283Z,4.50
2018-12-09T16:45:18.814Z,4.50
2018-12-09T16:47:46.425Z,4.60
2018-12-09T16:50:13.990Z,4.60
2018-12-09T16:52:41.669Z,4.60
2018-12-09T16:55:09.241Z,4.60
2018-12-09T16:57:36.818Z,4.60
2018-12-09T17:00:05.270Z,4.60
2018-12-09T17:02:32.881Z,4.60
2018-12-09T17:05:00.458Z,4.60
2018-12-09T17:07:28.015Z,4.70
2018-12-09T17:09:55.538Z,4.70
2018-12-09T17:12:23.183Z,4.60
2018-12-09T17:14:50.706Z,4.60
2018-12-09T17:17:18.249Z,4.50
2018-12-09T17:19:45.778Z,4.50
2018-12-09T17:22:13.367Z,4.50
2018-12-09T17:24:40.899Z,4.40
2018-12-09T17:27:08.502Z,4.40
2018-12-09T17:29:36.078Z,4.40
2018-12-09T17:32:03.667Z,4.40
2018-12-09T17:34:31.222Z,4.40
2018-12-09T17:36:58.827Z,4.50
2018-12-09T17:39:26.370Z,4.50
2018-12-09T17:41:53.955Z,4.50
2018-12-09T17:44:21.483Z,4.50
2018-12-09T17:46:49.025Z,4.50
2018-12-09T17:49:16.555Z,4.50
2018-12-09T17:51:44.131Z,4.60
2018-12-09T17:54:11.693Z,4.60
2018-12-09T17:56:39.217Z,4.60
2018-12-09T17:59:06.844Z,4.60
2018-12-09T18:01:34.450Z,4.60
2018-12-09T18:04:02.096Z,4.60
2018-12-09T18:06:29.627Z,4.70
2018-12-09T18:08:57.234Z,4.60
2018-12-09T18:11:24.797Z,4.70
2018-12-09T18:13:52.483Z,4.70
2018-12-09T18:16:20.005Z,4.70
2018-12-09T18:18:47.555Z,4.60
2018-12-09T18:21:15.082Z,4.70
2018-12-09T18:23:42.635Z,4.60
2018-12-09T18:26:10.312Z,4.60
2018-12-09T18:28:38.138Z,4.60
2018-12-09T18:31:05.794Z,4.60
2018-12-09T18:33:33.472Z,4.70
2018-12-09T18:36:01.038Z,4.70
2018-12-09T18:38:28.714Z,4.70
2018-12-09T18:40:56.377Z,4.70
2018-12-09T18:43:23.965Z,4.70
2018-12-09T18:45:51.490Z,4.70
2018-12-09T18:48:19.118Z,4.80
2018-12-09T18:50:46.638Z,4.70
2018-12-09T18:53:14.259Z,4.80
2018-12-09T18:55:41.925Z,4.80
2018-12-09T18:58:09.473Z,4.80
2018-12-09T19:00:36.993Z,4.80
2018-12-09T19:03:04.648Z,4.80
2018-12-09T19:05:32.265Z,4.80
2018-12-09T19:07:59.899Z,4.80
2018-12-09T19:10:27.566Z,4.80
2018-12-09T19:12:55.241Z,4.80
2018-12-09T19:15:22.770Z,4.80
2018-12-09T19:17:50.314Z,4.90
2018-12-09T19:20:17.925Z,4.80
2018-12-09T19:22:45.474Z,4.70
2018-12-09T19:25:13.003Z,4.70
2018-12-09T19:27:40.575Z,4.70
2018-12-09T19:30:08.186Z,4.70
2018-12-09T19:32:35.730Z,4.70
2018-12-09T19:35:03.351Z,4.60
2018-12-09T19:37:30.937Z,4.60
2018-12-09T19:39:58.462Z,4.70
2018-12-09T19:42:25.990Z,4.70
2018-12-09T19:44:53.532Z,4.70
2018-12-09T19:47:21.059Z,4.70
2018-12-09T19:49:48.624Z,4.70
2018-12-09T19:52:16.227Z,4.70
2018-12-09T19:54:43.786Z,4.80
2018-12-09T19:57:11.321Z,4.80
2018-12-09T19:59:38.866Z,4.80
2018-12-09T20:02:06.473Z,4.80
2018-12-09T20:04:34.063Z,4.80
2018-12-09T20:07:01.629Z,4.80
2018-12-09T20:09:29.205Z,4.80
2018-12-09T20:11:56.776Z,4.80
2018-12-09T20:14:24.326Z,4.70
2018-12-09T20:16:51.859Z,4.70
2018-12-09T20:19:19.456Z,4.70
2018-12-09T20:21:46.977Z,4.70
2018-12-09T20:24:14.638Z,4.80
2018-12-09T20:26:42.206Z,4.70
2018-12-09T20:29:09.882Z,4.60
2018-12-09T20:31:37.493Z,4.60
2018-12-09T20:34:05.034Z,4.50
2018-12-09T20:36:32.558Z,4.50
2018-12-09T20:39:00.111Z,4.50
2018-12-09T20:41:27.649Z,4.60
2018-12-09T20:43:55.200Z,4.50
2018-12-09T20:46:22.787Z,4.30
2018-12-09T20:48:50.478Z,3.40
2018-12-09T20:51:18.133Z,3.30
2018-12-09T20:53:45.706Z,3.60
2018-12-09T20:56:13.277Z,3.50
2018-12-09T20:58:40.855Z,3.40
2018-12-09T21:01:08.422Z,3.40
2018-12-09T21:03:35.998Z,3.50
2018-12-09T21:06:03.948Z,3.60
2018-12-09T21:08:31.654Z,3.60
2018-12-09T21:10:59.227Z,3.70
2018-12-09T21:13:26.794Z,3.70
2018-12-09T21:15:54.362Z,3.80
2018-12-09T21:18:23.134Z,3.80
2018-12-09T21:20:50.826Z,3.80
2018-12-09T21:23:18.429Z,3.80
2018-12-09T21:25:46.058Z,3.80
2018-12-09T21:28:13.582Z,3.70
2018-12-09T21:30:41.174Z,3.70
2018-12-09T21:33:08.698Z,3.80
2018-12-09T21:35:36.248Z,3.80
2018-12-09T21:38:03.827Z,3.90
2018-12-09T21:40:31.522Z,3.90
2018-12-09T21:42:59.059Z,3.90
2018-12-09T21:45:26.615Z,3.90
2018-12-09T21:47:54.250Z,3.90
2018-12-09T21:50:21.814Z,3.90
2018-12-09T21:52:49.396Z,4.00
2018-12-09T21:55:16.987Z,4.00
2018-12-09T21:57:44.510Z,4.00
2018-12-09T22:00:12.102Z,4.10
2018-12-09T22:02:39.635Z,4.10
2018-12-09T22:05:07.447Z,4.20
2018-12-09T22:07:34.981Z,4.20
2018-12-09T22:10:02.610Z,4.20
2018-12-09T22:12:30.186Z,4.20
2018-12-09T22:14:57.778Z,4.20
2018-12-09T22:17:25.310Z,4.30
2018-12-09T22:19:52.893Z,4.30
2018-12-09T22:22:20.418Z,4.20
2018-12-09T22:24:48.100Z,4.20
2018-12-09T22:27:15.633Z,4.20
2018-12-09T22:29:43.226Z,4.20
2018-12-09T22:32:10.845Z,4.20
2018-12-09T22:34:38.389Z,4.20
2018-12-09T22:37:06.015Z,4.20
2018-12-09T22:39:33.567Z,4.10
2018-12-09T22:42:01.098Z,4.10
2018-12-09T22:44:28.642Z,4.00
2018-12-09T22:46:56.166Z,4.00
2018-12-09T22:49:23.856Z,4.00
2018-12-09T22:51:51.386Z,4.00
2018-12-09T22:54:19.026Z,4.00
2018-12-09T22:56:46.569Z,4.00
2018-12-09T22:59:14.109Z,4.00
2018-12-09T23:01:43.659Z,3.90
2018-12-09T23:04:11.235Z,3.80
2018-12-09T23:06:38.806Z,3.80
2018-12-09T23:09:06.743Z,3.80
2018-12-09T23:11:34.282Z,3.90
2018-12-09T23:14:01.825Z,3.90
2018-12-09T23:16:29.398Z,3.90
2018-12-09T23:18:56.974Z,3.80
2018-12-09T23:21:24.542Z,3.80
2018-12-09T23:23:52.124Z,3.80
2018-12-09T23:26:19.864Z,3.80
2018-12-09T23:28:47.434Z,3.70
2018-12-09T23:31:15.017Z,3.70
2018-12-09T23:33:42.546Z,3.70
2018-12-09T23:36:10.096Z,3.60
2018-12-09T23:38:37.622Z,3.60
2018-12-09T23:41:05.217Z,3.60
2018-12-09T23:43:32.742Z,3.60
2018-12-09T23:46:00.286Z,3.60
2018-12-09T23:48:27.819Z,3.60
2018-12-09T23:50:55.362Z,3.50
2018-12-09T23:53:22.983Z,3.50
2018-12-09T23:55:50.527Z,3.60
2018-12-09T23:58:18.058Z,3.60
